Time;durP1;ratioP1;P1;durP2;ratioP2;P2;SDS_P1;SDS_P2;PMS_P1;PMS_P2;Temp;Humidity;BMP_temperature;BMP_pressure;BME280_temperature;BME280_humidity;BME280_pressure;Samples;Min_cycle;Max_cycle;Signal;HPM_P1;HPM_P2
2021/08/17 00:01:21;;;;;;;;;;;;;;;-144.99;100.00;52407.31;5033100;28;19995;-77
2021/08/17 00:03:47;;;;;;;;;;;;;;;-144.99;100.00;52431.78;5028029;28;19974;-77
2021/08/17 00:06:13;;;;;;;;;;;;;;;-144.99;100.00;52427.72;5026878;28;20352;-77
2021/08/17 00:08:41;;;;;;;;;;;;;;;-144.99;100.00;52444.03;5017842;28;19990;-77
2021/08/17 00:11:08;;;;;;;;;;;;;;;-144.99;100.00;52441.97;5031223;28;20008;-78
2021/08/17 00:13:34;;;;;;;;;;;;;;;-144.99;100.00;52448.09;5030805;28;19982;-77
2021/08/17 00:16:00;;;;;;;;;;;;;;;-144.99;100.00;52423.63;5029798;28;20418;-76
2021/08/17 00:18:27;;;;;;;;;;;;;;;-144.99;100.00;52448.09;5022291;28;19981;-77
2021/08/17 00:20:54;;;;;;;;;;;;;;;-144.99;100.00;52417.53;5021806;28;20091;-78
2021/08/17 00:23:20;;;;;;;;;;;;;;;-144.99;100.00;52448.09;5031265;28;19982;-79
2021/08/17 00:25:48;;;;;;;;;;;;;;;-144.99;100.00;52372.69;5032789;28;19978;-79
2021/08/17 00:28:14;;;;;;;;;;;;;;;-144.99;100.00;52439.94;5035448;28;20477;-78
2021/08/17 00:30:41;;;;;;;;;;;;;;;-144.99;100.00;52450.13;5031151;28;19978;-78
2021/08/17 00:33:07;;;;;;;;;;;;;;;-144.99;100.00;52415.47;5024353;28;20433;-80
2021/08/17 00:35:36;;;;;;;;;;;;;;;-144.99;100.00;52386.94;5033105;28;19981;-80
2021/08/17 00:38:02;;;;;;;;;;;;;;;-144.99;100.00;52397.13;5032559;28;20060;-79
2021/08/17 00:40:28;;;;;;;;;;;;;;;-144.99;100.00;52391.03;5038324;28;19978;-78
2021/08/17 00:42:56;;;;;;;;;;;;;;;-144.99;100.00;52429.75;5030516;28;19978;-76
2021/08/17 00:45:23;;;;;;;;;;;;;;;-144.99;100.00;52374.72;5030305;28;19977;-77
2021/08/17 00:47:50;;;;;;;;;;;;;;;-144.99;100.00;52478.66;5030013;28;19981;-77
2021/08/17 00:50:16;;;;;;;;;;;;;;;-144.99;100.00;52427.72;5031483;28;20001;-76
2021/08/17 00:52:43;;;;;;;;;;;;;;;-144.99;100.00;52413.44;5029885;28;19994;-77
2021/08/17 00:55:10;;;;;;;;;;;;;;;-144.99;100.00;52415.47;5034132;28;20113;-77
2021/08/17 00:57:37;;;;;;;;;;;;;;;-144.99;100.00;52407.31;5033767;28;19981;-76
2021/08/17 01:00:07;;;;;;;;;;;;;;;-144.99;100.00;52431.78;5033084;28;20359;-77
2021/08/17 01:02:33;;;;;;;;;;;;;;;-144.99;100.00;52431.78;5033997;28;19996;-76
2021/08/17 01:05:00;;;;;;;;;;;;;;;-144.99;100.00;52411.41;5018553;28;19977;-77
2021/08/17 01:07:26;;;;;;;;;;;;;;;-144.99;100.00;52382.88;5018873;28;19978;-77
2021/08/17 01:09:52;;;;;;;;;;;;;;;-144.99;100.00;52407.31;5037740;28;20001;-77
2021/08/17 01:12:19;;;;;;;;;;;;;;;-144.99;100.00;52415.47;5035252;28;19996;-78
2021/08/17 01:14:45;;;;;;;;;;;;;;;-144.99;100.00;52427.72;5033292;28;19956;-77
2021/08/17 01:17:13;;;;;;;;;;;;;;;-144.99;100.00;52378.78;5030956;28;19973;-76
2021/08/17 01:19:39;;;;;;;;;;;;;;;-144.99;100.00;52395.09;5029591;28;19981;-76
2021/08/17 01:22:05;;;;;;;;;;;;;;;-144.99;100.00;52439.94;5034107;28;19972;-77
2021/08/17 01:24:32;;;;;;;;;;;;;;;-144.99;100.00;52421.59;5034018;28;20440;-78
2021/08/17 01:26:59;;;;;;;;;;;;;;;-144.99;100.00;52380.84;5033546;28;19986;-78
2021/08/17 01:29:26;;;;;;;;;;;;;;;-144.99;100.00;52458.28;5031961;28;19989;-78
2021/08/17 01:31:52;;;;;;;;;;;;;;;-144.99;100.00;52427.72;5027909;28;20003;-78
2021/08/17 01:34:19;;;;;;;;;;;;;;;-144.99;100.00;52378.78;5030006;28;19982;-76
2021/08/17 01:36:45;;;;;;;;;;;;;;;-144.99;100.00;52407.31;5031990;28;19982;-77
2021/08/17 01:39:11;;;;;;;;;;;;;;;-144.99;100.00;52393.06;5035627;28;20368;-77
2021/08/17 01:41:38;;;;;;;;;;;;;;;-144.99;100.00;52417.53;5021344;28;20460;-76
2021/08/17 01:44:07;;;;;;;;;;;;;;;-144.99;100.00;52399.19;5033914;28;20137;-78
2021/08/17 01:46:33;;;;;;;;;;;;;;;-144.99;100.00;52409.38;5036479;28;19980;-77
2021/08/17 01:48:59;;;;;;;;;;;;;;;-144.99;100.00;52421.59;5031341;28;19996;-78
2021/08/17 01:51:26;;;;;;;;;;;;;;;-144.99;100.00;52466.44;5034074;28;19997;-79
2021/08/17 01:53:52;;;;;;;;;;;;;;;-144.99;100.00;52391.03;5032023;28;19985;-79
2021/08/17 01:56:18;;;;;;;;;;;;;;;-144.99;100.00;52431.78;5032635;28;19992;-77
2021/08/17 01:58:45;;;;;;;;;;;;;;;-144.99;100.00;52415.47;5032791;28;19988;-78
2021/08/17 02:01:13;;;;;;;;;;;;;;;-144.99;100.00;52425.66;5037234;28;20033;-79
2021/08/17 02:03:40;;;;;;;;;;;;;;;-144.99;100.00;52415.47;5024135;28;19980;-80
2021/08/17 02:06:07;;;;;;;;;;;;;;;-144.99;100.00;52427.72;5049631;28;19976;-79
2021/08/17 02:08:33;;;;;;;;;;;;;;;-144.99;100.00;52419.56;5053180;28;19963;-78
2021/08/17 02:11:00;;;;;;;;;;;;;;;-144.99;100.00;52421.59;5047931;28;19999;-79
2021/08/17 02:13:27;;;;;;;;;;;;;;;-144.99;100.00;52415.47;5035683;28;19976;-78
2021/08/17 02:15:53;;;;;;;;;;;;;;;-144.99;100.00;52427.72;5034549;28;20019;-79
2021/08/17 02:18:21;;;;;;;;;;;;;;;-144.99;100.00;52419.56;5033916;28;19977;-79
2021/08/17 02:20:47;;;;;;;;;;;;;;;-144.99;100.00;52415.47;5037803;28;19988;-79
2021/08/17 02:23:14;;;;;;;;;;;;;;;-144.99;100.00;52415.47;5036279;28;19984;-79
2021/08/17 02:25:40;;;;;;;;;;;;;;;-144.99;100.00;52431.78;5034171;28;20127;-79
2021/08/17 02:28:07;;;;;;;;;;;;;;;-144.99;100.00;52415.47;5040392;28;19980;-80
2021/08/17 02:30:33;;;;;;;;;;;;;;;-144.99;100.00;52427.72;5038175;28;19993;-79
2021/08/17 02:32:59;;;;;;;;;;;;;;;-144.99;100.00;52444.03;5040598;28;19978;-79
2021/08/17 02:35:27;;;;;;;;;;;;;;;-144.99;99.80;52378.78;5044790;28;19977;-79
2021/08/17 02:37:53;;;;;;;;;;;;;;;-144.99;98.28;52415.47;5034859;28;20022;-80
2021/08/17 02:40:20;;;;;;;;;;;;;;;-144.99;97.81;52417.53;5033267;28;19980;-79
2021/08/17 02:42:46;;;;;;;;;;;;;;;-144.99;97.01;52423.63;5036059;28;19988;-78
2021/08/17 02:45:12;;;;;;;;;;;;;;;-144.99;96.77;52419.56;5038808;28;19977;-77
2021/08/17 02:47:39;;;;;;;;;;;;;;;-144.99;96.51;52423.63;5032361;28;19991;-77
2021/08/17 02:50:06;;;;;;;;;;;;;;;-144.99;95.78;52441.97;5031712;28;19993;-76
2021/08/17 02:52:34;;;;;;;;;;;;;;;-144.99;95.62;52407.31;5028626;28;19997;-76
2021/08/17 02:55:00;;;;;;;;;;;;;;;-144.99;95.04;52399.19;5028729;28;19984;-77
2021/08/17 02:57:28;;;;;;;;;;;;;;;-144.99;95.19;52435.88;5031584;28;19979;-77
2021/08/17 02:59:54;;;;;;;;;;;;;;;-144.99;95.33;52407.31;5031148;28;19975;-76
2021/08/17 03:02:20;;;;;;;;;;;;;;;-144.99;95.56;52415.47;5030358;28;20460;-76
2021/08/17 03:04:47;;;;;;;;;;;;;;;-144.99;96.59;52431.78;5033816;28;19993;-77
2021/08/17 03:07:13;;;;;;;;;;;;;;;-144.99;97.57;52403.25;5030314;28;19977;-76
2021/08/17 03:09:41;;;;;;;;;;;;;;;-144.99;97.87;52407.31;5030991;28;19997;-77
2021/08/17 03:12:08;;;;;;;;;;;;;;;-144.99;99.35;52403.25;5031909;28;20000;-77
2021/08/17 03:14:34;;;;;;;;;;;;;;;-144.99;100.00;52456.25;5031569;28;20437;-77
2021/08/17 03:17:00;;;;;;;;;;;;;;;-144.99;100.00;52448.09;5030666;28;20012;-77
2021/08/17 03:19:27;;;;;;;;;;;;;;;-144.99;100.00;52407.31;5032010;28;19985;-79
2021/08/17 03:21:53;;;;;;;;;;;;;;;-144.99;100.00;52439.94;5029682;28;20001;-78
2021/08/17 03:24:19;;;;;;;;;;;;;;;-144.99;100.00;52431.78;5036900;28;19988;-79
2021/08/17 03:26:47;;;;;;;;;;;;;;;-144.99;100.00;52407.31;5030709;28;20064;-79
2021/08/17 03:29:14;;;;;;;;;;;;;;;-144.99;100.00;52452.16;5029363;28;19957;-78
2021/08/17 03:31:40;;;;;;;;;;;;;;;-144.99;100.00;52456.25;5020504;28;19998;-78
2021/08/17 03:34:06;;;;;;;;;;;;;;;-144.99;100.00;52444.03;5043502;28;20055;-79
2021/08/17 03:36:33;;;;;;;;;;;;;;;-144.99;100.00;52415.47;5038362;28;20072;-78
2021/08/17 03:38:59;;;;;;;;;;;;;;;-144.99;100.00;52421.59;5044724;28;20078;-78
2021/08/17 03:41:26;;;;;;;;;;;;;;;-144.99;100.00;52413.44;5035162;28;20000;-78
2021/08/17 03:43:53;;;;;;;;;;;;;;;-144.99;100.00;52423.63;5030835;28;19971;-79
2021/08/17 03:46:20;;;;;;;;;;;;;;;-144.99;100.00;52386.94;5032632;28;19959;-78
2021/08/17 03:48:46;;;;;;;;;;;;;;;-144.99;100.00;52439.94;5032158;28;20087;-77
2021/08/17 03:51:12;;;;;;;;;;;;;;;-144.99;100.00;52427.72;5016781;28;20342;-76
2021/08/17 03:53:39;;;;;;;;;;;;;;;-144.99;100.00;52415.47;5030678;28;21964;-76
2021/08/17 03:56:05;;;;;;;;;;;;;;;-144.99;100.00;52415.47;5025731;28;19981;-77
2021/08/17 03:58:32;;;;;;;;;;;;;;;-144.99;100.00;52427.72;5030935;28;19984;-78
2021/08/17 04:00:59;;;;;;;;;;;;;;;-144.99;100.00;52444.03;5030305;28;19994;-76
2021/08/17 04:03:26;;;;;;;;;;;;;;;-144.99;100.00;52444.03;5020580;28;19977;-77
2021/08/17 04:05:52;;;;;;;;;;;;;;;-144.99;100.00;52419.56;5023984;28;20054;-77
2021/08/17 04:08:18;;;;;;;;;;;;;;;-144.99;100.00;52411.41;5023704;28;19977;-77
2021/08/17 04:10:46;;;;;;;;;;;;;;;-144.99;100.00;52439.94;5030062;28;20005;-77
2021/08/17 04:13:13;;;;;;;;;;;;;;;-144.99;100.00;52403.25;5036708;28;19984;-77
2021/08/17 04:15:39;;;;;;;;;;;;;;;-144.99;100.00;52409.38;5029546;28;19994;-77
2021/08/17 04:18:07;;;;;;;;;;;;;;;-144.99;100.00;52421.59;5032132;28;20402;-79
2021/08/17 04:20:35;;;;;;;;;;;;;;;-144.99;100.00;52448.09;5032688;28;19977;-79
2021/08/17 04:23:01;;;;;;;;;;;;;;;-144.99;100.00;52429.75;5030523;28;19982;-70
2021/08/17 04:25:28;;;;;;;;;;;;;;;-144.99;100.00;52425.66;5029043;28;19973;-70
2021/08/17 04:27:54;;;;;;;;;;;;;;;-144.99;100.00;52435.88;5020917;28;20451;-70
2021/08/17 04:30:20;;;;;;;;;;;;;;;-144.99;100.00;52431.78;5028087;28;20462;-70
2021/08/17 04:32:47;;;;;;;;;;;;;;;-144.99;100.00;52429.75;5042662;23;19995;-75
2021/08/17 04:35:15;;;;;;;;;;;;;;;-144.99;100.00;52391.03;5030851;28;20909;-74
2021/08/17 04:37:42;;;;;;;;;;;;;;;-144.99;100.00;52395.09;5037501;28;19972;-74
2021/08/17 04:40:09;;;;;;;;;;;;;;;-144.99;100.00;52403.25;5031576;28;20005;-75
2021/08/17 04:42:35;;;;;;;;;;;;;;;-144.99;100.00;52431.78;5031459;28;20372;-73
2021/08/17 04:45:01;;;;;;;;;;;;;;;-144.99;100.00;52411.41;5031443;28;19988;-73
2021/08/17 04:47:28;;;;;;;;;;;;;;;-144.99;100.00;52415.47;5024144;28;20003;-76
2021/08/17 04:49:54;;;;;;;;;;;;;;;-144.99;100.00;52411.41;5039314;28;20348;-74
2021/08/17 04:52:22;;;;;;;;;;;;;;;-144.99;100.00;52419.56;5018876;28;20008;-76
2021/08/17 04:54:48;;;;;;;;;;;;;;;-144.99;100.00;52397.13;5014870;28;19988;-75
2021/08/17 04:57:14;;;;;;;;;;;;;;;-144.99;100.00;52427.72;5018839;28;20395;-80
2021/08/17 04:59:41;;;;;;;;;;;;;;;-144.99;100.00;52393.06;5024696;28;19945;-80
2021/08/17 05:02:07;;;;;;;;;;;;;;;-144.99;100.00;52407.31;5032689;28;19970;-77
2021/08/17 05:04:33;;;;;;;;;;;;;;;-144.99;100.00;52427.72;5035146;28;20005;-78
2021/08/17 05:07:01;;;;;;;;;;;;;;;-144.99;100.00;52415.47;5030398;28;20368;-77
2021/08/17 05:09:29;;;;;;;;;;;;;;;-144.99;100.00;52386.94;5027456;28;19986;-78
2021/08/17 05:11:55;;;;;;;;;;;;;;;-144.99;100.00;52429.75;5022689;28;20358;-79
2021/08/17 05:14:36;;;;;;;;;;;;;;;-144.99;100.00;52415.47;4486696;28;10000756;-81
2021/08/17 05:17:02;;;;;;;;;;;;;;;-144.99;100.00;52374.72;5033445;28;20272;-82
2021/08/17 05:19:29;;;;;;;;;;;;;;;-144.99;100.00;52460.31;5043372;28;20066;-79
2021/08/17 05:21:55;;;;;;;;;;;;;;;-144.99;100.00;52427.72;5032444;28;20003;-79
2021/08/17 05:24:21;;;;;;;;;;;;;;;-144.99;100.00;52393.06;5044330;28;19994;-79
2021/08/17 05:26:49;;;;;;;;;;;;;;;-144.99;100.00;52407.31;5013189;28;19977;-79
2021/08/17 05:29:15;;;;;;;;;;;;;;;-144.99;100.00;52399.19;5024095;28;19978;-78
2021/08/17 05:31:41;;;;;;;;;;;;;;;-144.99;100.00;52427.72;5020363;28;19992;-81
2021/08/17 05:34:08;;;;;;;;;;;;;;;-144.99;100.00;52431.78;5028241;28;20004;-80
2021/08/17 05:36:34;;;;;;;;;;;;;;;-144.99;100.00;52354.34;5008178;28;19989;-79
2021/08/17 05:39:00;;;;;;;;;;;;;;;-144.99;100.00;52411.41;5009196;28;20008;-78
2021/08/17 05:41:27;;;;;;;;;;;;;;;-144.99;100.00;52415.47;5020830;28;20035;-80
2021/08/17 05:43:54;;;;;;;;;;;;;;;-144.99;100.00;52403.25;5020639;28;19996;-79
2021/08/17 05:46:21;;;;;;;;;;;;;;;-144.99;100.00;52399.19;5008067;28;20006;-80
2021/08/17 05:48:47;;;;;;;;;;;;;;;-144.99;100.00;52370.63;5008224;28;19989;-79
2021/08/17 05:51:13;;;;;;;;;;;;;;;-144.99;100.00;52374.72;5011760;28;20016;-79
2021/08/17 05:53:40;;;;;;;;;;;;;;;-144.99;100.00;52407.31;5036820;28;19999;-77
2021/08/17 05:56:06;;;;;;;;;;;;;;;-144.99;100.00;52358.41;5016552;28;19996;-79
2021/08/17 05:58:32;;;;;;;;;;;;;;;-144.99;100.00;52366.56;5010473;28;19987;-78
2021/08/17 06:01:00;;;;;;;;;;;;;;;-144.99;100.00;52413.44;5021950;28;19982;-79
2021/08/17 06:03:27;;;;;;;;;;;;;;;-144.99;100.00;52366.56;5026717;28;20114;-79
2021/08/17 06:05:57;;;;;;;;;;;;;;;-144.99;100.00;52342.09;5029317;28;19997;-80
2021/08/17 06:08:23;;;;;;;;;;;;;;;-144.99;100.00;52333.94;5036429;28;19979;-81
2021/08/17 06:10:49;;;;;;;;;;;;;;;-144.99;100.00;52386.94;5011675;28;20182;-81
2021/08/17 06:13:15;;;;;;;;;;;;;;;-144.99;100.00;52374.72;5034682;28;20445;-80
2021/08/17 06:15:42;;;;;;;;;;;;;;;-144.99;100.00;52350.25;5017003;28;19991;-80
2021/08/17 06:18:10;;;;;;;;;;;;;;;-144.99;100.00;52378.78;5038401;28;19980;-79
2021/08/17 06:20:36;;;;;;;;;;;;;;;-144.99;100.00;52399.19;5007614;28;19998;-80
2021/08/17 06:23:03;;;;;;;;;;;;;;;-144.99;100.00;52354.34;5019596;28;20012;-79
2021/08/17 06:25:30;;;;;;;;;;;;;;;-144.99;100.00;52386.94;5029589;28;20009;-78
2021/08/17 06:27:56;;;;;;;;;;;;;;;-144.99;100.00;52399.19;5007563;28;19985;-78
2021/08/17 06:30:23;;;;;;;;;;;;;;;-144.99;100.00;52403.25;5016468;28;19997;-78
2021/08/17 06:32:50;;;;;;;;;;;;;;;-144.99;100.00;52384.91;5015240;28;19994;-78
2021/08/17 06:35:17;;;;;;;;;;;;;;;-144.99;100.00;52419.56;5040768;28;19981;-80
2021/08/17 06:37:44;;;;;;;;;;;;;;;-144.99;100.00;52362.50;5015411;28;20020;-79
2021/08/17 06:40:10;;;;;;;;;;;;;;;-144.99;100.00;52391.03;5008192;28;20340;-78
2021/08/17 06:42:37;;;;;;;;;;;;;;;-144.99;100.00;52362.50;5008687;28;19989;-77
2021/08/17 06:45:04;;;;;;;;;;;;;;;-144.99;100.00;52382.88;5022860;28;19976;-79
2021/08/17 06:47:30;;;;;;;;;;;;;;;-144.99;100.00;52362.50;5037172;28;19983;-80
2021/08/17 06:49:57;;;;;;;;;;;;;;;-144.99;100.00;52407.31;5029601;28;19996;-79
2021/08/17 06:52:24;;;;;;;;;;;;;;;-144.99;100.00;52391.03;5007293;28;20213;-78
2021/08/17 06:54:51;;;;;;;;;;;;;;;-144.99;100.00;52386.94;5012304;28;20013;-78
2021/08/17 06:57:17;;;;;;;;;;;;;;;-144.99;100.00;52378.78;5017329;28;19976;-79
2021/08/17 06:59:43;;;;;;;;;;;;;;;-144.99;100.00;52338.03;5023181;28;19982;-79
2021/08/17 07:02:09;;;;;;;;;;;;;;;-144.99;100.00;52374.72;5018803;28;19980;-78
2021/08/17 07:04:36;;;;;;;;;;;;;;;-144.99;100.00;52331.91;5029878;28;19976;-78
2021/08/17 07:07:02;;;;;;;;;;;;;;;-144.99;100.00;52362.50;5022348;28;20008;-79
2021/08/17 07:09:30;;;;;;;;;;;;;;;-144.99;100.00;52374.72;5020825;28;19982;-79
2021/08/17 07:11:56;;;;;;;;;;;;;;;-144.99;100.00;52378.78;5026781;28;20000;-79
2021/08/17 07:14:23;;;;;;;;;;;;;;;-144.99;100.00;52360.44;5018253;28;19998;-79
2021/08/17 07:16:49;;;;;;;;;;;;;;;-144.99;100.00;52407.31;5021210;28;19981;-79
2021/08/17 07:19:15;;;;;;;;;;;;;;;-144.99;100.00;52350.25;5038943;28;19987;-77
2021/08/17 07:21:42;;;;;;;;;;;;;;;-144.99;100.00;52382.88;5027091;28;19978;-79
2021/08/17 07:24:08;;;;;;;;;;;;;;;-144.99;100.00;52358.41;5028595;28;20371;-78
2021/08/17 07:26:36;;;;;;;;;;;;;;;-144.99;100.00;52362.50;5012125;28;19978;-80
2021/08/17 07:29:02;;;;;;;;;;;;;;;-144.99;100.00;52395.09;5029700;28;20001;-79
2021/08/17 07:31:29;;;;;;;;;;;;;;;-144.99;100.00;52358.41;5039983;28;20476;-79
2021/08/17 07:33:55;;;;;;;;;;;;;;;-144.99;100.00;52384.91;5020065;28;20017;-80
2021/08/17 07:36:22;;;;;;;;;;;;;;;-144.99;100.00;52411.41;5007518;28;19990;-79
2021/08/17 07:38:48;;;;;;;;;;;;;;;-144.99;100.00;52399.19;5016334;28;19985;-79
2021/08/17 07:41:14;;;;;;;;;;;;;;;-144.99;100.00;52386.94;5029996;28;19986;-78
2021/08/17 07:43:42;;;;;;;;;;;;;;;-144.99;100.00;52370.63;5007506;28;20008;-78
2021/08/17 07:46:08;;;;;;;;;;;;;;;-144.99;100.00;52350.25;5008132;28;20453;-79
2021/08/17 07:48:34;;;;;;;;;;;;;;;-144.99;100.00;52364.53;5027712;28;19991;-78
2021/08/17 07:51:01;;;;;;;;;;;;;;;-144.99;100.00;52342.09;5033019;28;20453;-76
2021/08/17 07:53:27;;;;;;;;;;;;;;;-144.99;100.00;52374.72;5015825;28;20008;-79
2021/08/17 07:55:53;;;;;;;;;;;;;;;-144.99;100.00;52407.31;5026064;28;20004;-80
2021/08/17 07:58:20;;;;;;;;;;;;;;;-144.99;100.00;52399.19;5012537;28;19978;-81
2021/08/17 08:00:47;;;;;;;;;;;;;;;-144.99;100.00;52378.78;5010152;28;20372;-79
2021/08/17 08:03:14;;;;;;;;;;;;;;;-144.99;100.00;52415.47;5023553;28;19989;-78
2021/08/17 08:05:40;;;;;;;;;;;;;;;-144.99;100.00;52411.41;5025815;28;20292;-77
2021/08/17 08:08:06;;;;;;;;;;;;;;;-144.99;100.00;52415.47;5029177;28;19998;-79
2021/08/17 08:10:32;;;;;;;;;;;;;;;-144.99;100.00;52395.09;5033881;28;20032;-82
2021/08/17 08:12:59;;;;;;;;;;;;;;;-144.99;100.00;52372.69;5028555;28;20000;-81
2021/08/17 08:15:25;;;;;;;;;;;;;;;-144.99;100.00;52407.31;5030883;28;20426;-79
2021/08/17 08:17:53;;;;;;;;;;;;;;;-144.99;100.00;52395.09;5041359;28;20569;-81
2021/08/17 08:20:20;;;;;;;;;;;;;;;-144.99;100.00;52423.63;5026431;28;19976;-80
2021/08/17 08:22:47;;;;;;;;;;;;;;;-144.99;100.00;52407.31;5020602;28;20035;-79
2021/08/17 08:25:14;;;;;;;;;;;;;;;-144.99;100.00;52399.19;5025900;28;19985;-78
2021/08/17 08:27:40;;;;;;;;;;;;;;;-144.99;100.00;52386.94;5012427;28;20440;-77
2021/08/17 08:30:07;;;;;;;;;;;;;;;-144.99;100.00;52395.09;5020291;28;19980;-79
2021/08/17 08:32:33;;;;;;;;;;;;;;;-144.99;100.00;52380.84;5042755;28;20386;-81
2021/08/17 08:35:01;;;;;;;;;;;;;;;-144.99;100.00;52448.09;5017978;28;19983;-79
2021/08/17 08:37:27;;;;;;;;;;;;;;;-144.99;100.00;52419.56;5017353;28;20004;-81
2021/08/17 08:39:55;;;;;;;;;;;;;;;-144.99;100.00;52407.31;5025751;28;19981;-79
2021/08/17 08:42:22;;;;;;;;;;;;;;;-144.99;100.00;52407.31;5023047;28;20437;-80
2021/08/17 08:44:48;;;;;;;;;;;;;;;-144.99;100.00;52382.88;5029284;28;19981;-79
2021/08/17 08:47:15;;;;;;;;;;;;;;;-144.99;100.00;52399.19;5015808;28;20402;-79
2021/08/17 08:49:42;;;;;;;;;;;;;;;-144.99;100.00;52407.31;5012527;28;20011;-78
2021/08/17 08:52:10;;;;;;;;;;;;;;;-144.99;100.00;52403.25;5029720;28;20084;-80
2021/08/17 08:54:36;;;;;;;;;;;;;;;-144.99;100.00;52395.09;5040072;28;19985;-80
2021/08/17 08:57:03;;;;;;;;;;;;;;;-144.99;100.00;52382.88;5031443;28;19987;-81
2021/08/17 08:59:29;;;;;;;;;;;;;;;-144.99;100.00;52413.44;5010134;28;20076;-78
2021/08/17 09:02:04;;;;;;;;;;;;;;;-144.99;100.00;52391.03;5025418;28;19947;-82
2021/08/17 09:04:30;;;;;;;;;;;;;;;-144.99;100.00;52419.56;5027135;28;20540;-80
2021/08/17 09:06:57;;;;;;;;;;;;;;;-144.99;100.00;52382.88;5028387;28;19988;-80
2021/08/17 09:09:24;;;;;;;;;;;;;;;-144.99;100.00;52397.13;5027638;28;19981;-81
2021/08/17 09:11:52;;;;;;;;;;;;;;;-144.99;100.00;52427.72;5024088;28;20372;-79
2021/08/17 09:14:20;;;;;;;;;;;;;;;-144.99;100.00;52397.13;5025598;28;20001;-80
2021/08/17 09:16:46;;;;;;;;;;;;;;;-144.99;100.00;52427.72;5025092;28;19985;-78
2021/08/17 09:19:26;;;;;;;;;;;;;;;-144.99;100.00;52423.63;5030963;28;19982;-77
2021/08/17 09:21:53;;;;;;;;;;;;;;;-144.99;100.00;52388.97;5012287;28;20157;-79
2021/08/17 09:24:20;;;;;;;;;;;;;;;-144.99;100.00;52399.19;5022475;28;19998;-77
2021/08/17 09:26:49;;;;;;;;;;;;;;;-144.99;100.00;52374.72;5023284;28;20491;-80
2021/08/17 09:29:25;;;;;;;;;;;;;;;-144.99;100.00;52376.75;5014455;28;20404;-77
2021/08/17 09:31:52;;;;;;;;;;;;;;;-144.99;100.00;52409.38;5027043;28;20013;-77
2021/08/17 09:34:19;;;;;;;;;;;;;;;-144.99;100.00;52382.88;5034736;28;20011;-80
2021/08/17 09:36:46;;;;;;;;;;;;;;;-144.99;100.00;52403.25;5010140;28;19989;-79
2021/08/17 09:39:26;;;;;;;;;;;;;;;-144.99;100.00;52386.94;5028774;28;19987;-81
2021/08/17 09:42:05;;;;;;;;;;;;;;;-144.99;100.00;52366.56;5025217;28;20434;-79
2021/08/17 09:44:31;;;;;;;;;;;;;;;-144.99;100.00;52366.56;5024908;28;19977;-79
2021/08/17 09:46:58;;;;;;;;;;;;;;;-144.99;100.00;52333.94;5025645;28;19981;-79
2021/08/17 09:49:26;;;;;;;;;;;;;;;-144.99;100.00;52407.31;5041767;28;19987;-77
2021/08/17 09:51:53;;;;;;;;;;;;;;;-144.99;100.00;52358.41;5027258;28;19989;-78
2021/08/17 09:54:21;;;;;;;;;;;;;;;-144.99;100.00;52386.94;5024484;28;19992;-79
2021/08/17 09:56:56;;;;;;;;;;;;;;;-144.99;100.00;52407.31;5021812;28;19979;-78
2021/08/17 09:59:22;;;;;;;;;;;;;;;-144.99;100.00;52382.88;5026376;28;19979;-77
2021/08/17 10:01:49;;;;;;;;;;;;;;;-144.99;100.00;52370.63;5018160;28;20077;-79
2021/08/17 10:04:15;;;;;;;;;;;;;;;-144.99;100.00;52399.19;5032261;28;20250;-81
2021/08/17 10:06:42;;;;;;;;;;;;;;;-144.99;100.00;52374.72;5028282;28;19974;-80
2021/08/17 10:09:10;;;;;;;;;;;;;;;-144.99;100.00;52338.03;5025256;28;19990;-79
2021/08/17 10:11:36;;;;;;;;;;;;;;;-144.99;100.00;52374.72;5041655;28;20234;-78
2021/08/17 10:14:04;;;;;;;;;;;;;;;-144.99;100.00;52366.56;5009022;28;19999;-77
2021/08/17 10:16:30;;;;;;;;;;;;;;;-144.99;100.00;52419.56;5033240;28;19993;-76
2021/08/17 10:18:57;;;;;;;;;;;;;;;-144.99;100.00;52423.63;5031550;28;20429;-78
2021/08/17 10:21:24;;;;;;;;;;;;;;;-144.99;100.00;52419.56;5040132;28;19987;-80
2021/08/17 10:23:50;;;;;;;;;;;;;;;-144.99;100.00;52333.94;5020570;28;20106;-79
2021/08/17 10:26:27;;;;;;;;;;;;;;;-144.99;100.00;52399.19;5011437;28;19984;-77
2021/08/17 10:28:53;;;;;;;;;;;;;;;-144.99;100.00;52452.16;5028011;28;19999;-79
2021/08/17 10:31:23;;;;;;;;;;;;;;;-144.99;100.00;52395.09;5025155;28;19984;-79
2021/08/17 10:33:51;;;;;;;;;;;;;;;-144.99;100.00;52415.47;5021431;28;20012;-79
2021/08/17 10:36:30;;;;;;;;;;;;;;;-144.99;100.00;52382.88;5019299;28;19975;-78
2021/08/17 10:38:56;;;;;;;;;;;;;;;-144.99;100.00;52407.31;5030049;28;19980;-79
2021/08/17 10:41:30;;;;;;;;;;;;;;;-144.99;100.00;52380.84;5021632;28;20083;-76
2021/08/17 10:44:11;;;;;;;;;;;;;;;-144.99;100.00;52384.91;5038447;28;20008;-79
2021/08/17 10:46:44;;;;;;;;;;;;;;;-144.99;100.00;52370.63;5008146;28;19977;-79
2021/08/17 10:49:27;;;;;;;;;;;;;;;-144.99;100.00;52366.56;5029754;28;19981;-80
2021/08/17 10:51:55;;;;;;;;;;;;;;;-144.99;100.00;52417.53;5017262;28;19999;-79
2021/08/17 10:54:21;;;;;;;;;;;;;;;-144.99;100.00;52399.19;5028883;28;20024;-79
2021/08/17 10:56:48;;;;;;;;;;;;;;;-144.99;100.00;52393.06;5015733;28;19992;-79
2021/08/17 10:59:14;;;;;;;;;;;;;;;-144.99;100.00;52448.09;5007865;28;20447;-80
2021/08/17 11:01:43;;;;;;;;;;;;;;;-144.99;100.00;52372.69;5007873;28;20000;-78
2021/08/17 11:04:18;;;;;;;;;;;;;;;-144.99;100.00;52407.31;5015925;28;20082;-78
2021/08/17 11:06:47;;;;;;;;;;;;;;;-144.99;100.00;52393.06;5039377;28;19974;-79
2021/08/17 11:09:14;;;;;;;;;;;;;;;-144.99;100.00;52427.72;5030555;28;20037;-81
2021/08/17 11:11:40;;;;;;;;;;;;;;;-144.99;100.00;52411.41;5038979;28;20452;-78
2021/08/17 11:14:11;;;;;;;;;;;;;;;-144.99;100.00;52391.03;5006765;28;20001;-78
2021/08/17 11:16:43;;;;;;;;;;;;;;;-144.99;100.00;52386.94;5022739;28;20010;-80
2021/08/17 11:19:10;;;;;;;;;;;;;;;-144.99;100.00;52399.19;5037546;28;19980;-80
2021/08/17 11:21:37;;;;;;;;;;;;;;;-144.99;100.00;52358.41;5029027;28;19976;-79
2021/08/17 11:24:12;;;;;;;;;;;;;;;-144.99;100.00;52393.06;5027010;28;20457;-79
2021/08/17 11:26:39;;;;;;;;;;;;;;;-144.99;100.00;52399.19;5028408;28;19978;-79
2021/08/17 11:29:05;;;;;;;;;;;;;;;-144.99;100.00;52366.56;5036887;28;19980;-79
2021/08/17 11:31:32;;;;;;;;;;;;;;;-144.99;100.00;52427.72;5023181;28;19988;-78
2021/08/17 11:34:13;;;;;;;;;;;;;;;-144.99;100.00;52415.47;5024235;28;20066;-77
2021/08/17 11:36:40;;;;;;;;;;;;;;;-144.99;100.00;52399.19;5007998;28;20290;-76
2021/08/17 11:39:16;;;;;;;;;;;;;;;-144.99;100.00;52423.63;5012550;28;19983;-78
2021/08/17 11:41:43;;;;;;;;;;;;;;;-144.99;100.00;52403.25;5029300;28;19971;-77
2021/08/17 11:44:10;;;;;;;;;;;;;;;-144.99;100.00;52437.91;5018097;28;20006;-79
2021/08/17 11:46:36;;;;;;;;;;;;;;;-144.99;100.00;52415.47;5011035;28;19990;-80
2021/08/17 11:49:17;;;;;;;;;;;;;;;-144.99;100.00;52407.31;5017804;28;20007;-79
2021/08/17 11:51:45;;;;;;;;;;;;;;;-144.99;100.00;52407.31;5012952;28;19972;-82
2021/08/17 11:54:13;;;;;;;;;;;;;;;-144.99;100.00;52384.91;5028570;28;19992;-83
2021/08/17 11:56:39;;;;;;;;;;;;;;;-144.99;100.00;52399.19;5026838;28;20019;-78
2021/08/17 11:59:06;;;;;;;;;;;;;;;-144.99;100.00;52415.47;5022189;28;20370;-78
2021/08/17 12:01:32;;;;;;;;;;;;;;;-144.99;100.00;52413.44;5014877;28;19979;-79
2021/08/17 12:04:05;;;;;;;;;;;;;;;-144.99;100.00;52378.78;5029514;28;20262;-79
2021/08/17 12:06:31;;;;;;;;;;;;;;;-144.99;100.00;52407.31;5023658;28;19996;-79
2021/08/17 12:09:13;;;;;;;;;;;;;;;-144.99;100.00;52395.09;5020181;28;19991;-77
2021/08/17 12:11:54;;;;;;;;;;;;;;;-144.99;100.00;52403.25;5013710;28;19978;-76
2021/08/17 12:14:24;;;;;;;;;;;;;;;-144.99;100.00;52370.63;5025462;28;20397;-81
2021/08/17 12:16:52;;;;;;;;;;;;;;;-144.99;100.00;52391.03;5023560;28;19981;-77
2021/08/17 12:19:18;;;;;;;;;;;;;;;-144.99;100.00;52419.56;5013695;28;19996;-79